Time;durP1;ratioP1;P1;durP2;ratioP2;P2;SDS_P1;SDS_P2;PMS_P1;PMS_P2;Temp;Humidity;BMP_temperature;BMP_pressure;BME280_temperature;BME280_humidity;BME280_pressure;Samples;Min_cycle;Max_cycle;Signal;HPM_P1;HPM_P2
2022/08/02 00:01:25;;;;;;;;;;;;;;;24.57;77.60;96789.70;618959;229;65272;-64
2022/08/02 00:03:53;;;;;;;;;;;;;;;24.57;77.67;96789.70;618905;229;65048;-64
2022/08/02 00:06:20;;;;;;;;;;;;;;;24.57;77.69;96789.70;618947;229;65209;-65
2022/08/02 00:08:48;;;;;;;;;;;;;;;24.57;77.67;96787.80;618945;229;65504;-65
2022/08/02 00:11:15;;;;;;;;;;;;;;;24.57;77.71;96790.49;618934;229;65064;-65
2022/08/02 00:13:43;;;;;;;;;;;;;;;24.56;77.71;96788.91;622767;227;65895;-65
2022/08/02 00:16:10;;;;;;;;;;;;;;;24.56;77.81;96782.75;624233;227;64951;-65
2022/08/02 00:18:38;;;;;;;;;;;;;;;24.56;77.77;96791.60;624213;227;65056;-65
2022/08/02 00:21:06;;;;;;;;;;;;;;;24.57;77.73;96789.70;624126;227;64989;-65
2022/08/02 00:23:33;;;;;;;;;;;;;;;24.56;77.79;96782.75;624164;227;65707;-64
2022/08/02 00:26:00;;;;;;;;;;;;;;;24.56;77.78;96778.17;624169;227;64978;-64
2022/08/02 00:28:28;;;;;;;;;;;;;;;24.55;77.90;96779.27;624227;227;64892;-64
2022/08/02 00:30:57;;;;;;;;;;;;;;;24.55;77.85;96781.96;624160;227;63218;-64
2022/08/02 00:33:24;;;;;;;;;;;;;;;24.55;77.81;96784.64;624185;227;62906;-63
2022/08/02 00:35:52;;;;;;;;;;;;;;;24.55;77.86;96792.70;624164;227;64958;-64
2022/08/02 00:38:20;;;;;;;;;;;;;;;24.55;77.88;96798.08;624192;227;65137;-64
2022/08/02 00:40:48;;;;;;;;;;;;;;;24.55;77.96;96792.70;624239;227;62508;-63
2022/08/02 00:43:16;;;;;;;;;;;;;;;24.55;77.95;96798.08;624187;227;62797;-64
2022/08/02 00:45:44;;;;;;;;;;;;;;;24.55;77.96;96792.70;624144;227;62812;-63
2022/08/02 00:48:13;;;;;;;;;;;;;;;24.54;77.99;96790.30;624207;227;65120;-63
2022/08/02 00:50:41;;;;;;;;;;;;;;;24.54;77.98;96785.72;624135;227;65151;-63
2022/08/02 00:53:09;;;;;;;;;;;;;;;24.53;77.93;96789.52;624253;227;65138;-64
2022/08/02 00:55:38;;;;;;;;;;;;;;;24.53;77.93;96789.52;624183;227;65058;-64
2022/08/02 00:58:07;;;;;;;;;;;;;;;24.53;77.90;96781.45;624172;227;62731;-63
2022/08/02 01:00:34;;;;;;;;;;;;;;;24.53;77.83;96786.83;624158;227;62925;-64
2022/08/02 01:03:02;;;;;;;;;;;;;;;24.53;77.81;96786.83;624133;227;65105;-64
2022/08/02 01:05:29;;;;;;;;;;;;;;;24.53;77.90;96786.83;624211;227;64820;-63
2022/08/02 01:07:57;;;;;;;;;;;;;;;24.53;77.90;96784.14;624165;227;65708;-64
2022/08/02 01:10:24;;;;;;;;;;;;;;;24.54;77.97;96782.25;624122;227;65585;-63
2022/08/02 01:12:52;;;;;;;;;;;;;;;24.52;78.00;96782.53;622073;227;62651;-63
2022/08/02 01:15:20;;;;;;;;;;;;;;;24.53;78.05;96783.35;618940;229;63012;-63
2022/08/02 01:17:55;;;;;;;;;;;;;;;24.53;77.99;96778.77;618891;229;62976;-64
2022/08/02 01:20:31;;;;;;;;;;;;;;;24.52;77.88;96779.84;618852;228;63607;-63
2022/08/02 01:23:18;;;;;;;;;;;;;;;24.52;77.84;96773.69;618914;229;65523;-63
2022/08/02 01:26:03;;;;;;;;;;;;;;;24.51;77.66;96778.27;618730;228;65167;-63
2022/08/02 01:28:39;;;;;;;;;;;;;;;24.52;77.64;96779.05;618930;229;63035;-63
2022/08/02 01:31:14;;;;;;;;;;;;;;;24.49;77.54;96777.77;618900;229;63108;-63
2022/08/02 01:33:43;;;;;;;;;;;;;;;24.51;77.46;96777.48;618939;229;65426;-64
2022/08/02 01:36:12;;;;;;;;;;;;;;;24.51;77.49;96774.79;618848;228;64871;-63
2022/08/02 01:38:41;;;;;;;;;;;;;;;24.51;77.50;96780.16;618916;229;63425;-64
2022/08/02 01:41:09;;;;;;;;;;;;;;;24.51;77.51;96774.79;618933;229;62863;-64
2022/08/02 01:43:38;;;;;;;;;;;;;;;24.50;77.49;96779.38;618888;229;62763;-64
2022/08/02 01:46:06;;;;;;;;;;;;;;;24.49;77.39;96767.02;618907;229;65465;-64
2022/08/02 01:48:34;;;;;;;;;;;;;;;24.50;77.33;96767.80;618894;229;63288;-64
2022/08/02 01:51:02;;;;;;;;;;;;;;;24.49;77.26;96767.02;618943;229;62838;-64
2022/08/02 01:53:30;;;;;;;;;;;;;;;24.49;77.19;96766.23;618913;229;63055;-64
2022/08/02 01:55:59;;;;;;;;;;;;;;;24.49;77.16;96767.02;618952;229;62981;-64
2022/08/02 01:58:28;;;;;;;;;;;;;;;24.50;77.16;96767.80;618937;229;64887;-64
2022/08/02 02:00:57;;;;;;;;;;;;;;;24.49;77.16;96772.39;618899;229;65627;-64
2022/08/02 02:03:25;;;;;;;;;;;;;;;24.49;77.19;96761.64;618978;229;64899;-63
2022/08/02 02:05:54;;;;;;;;;;;;;;;24.49;77.24;96766.23;618956;229;62653;-63
2022/08/02 02:08:23;;;;;;;;;;;;;;;24.50;77.17;96773.18;618943;229;63030;-64
2022/08/02 02:10:51;;;;;;;;;;;;;;;24.49;77.21;96771.59;618971;229;62874;-64
2022/08/02 02:13:19;;;;;;;;;;;;;;;24.49;77.30;96772.39;618864;227;65015;-64
2022/08/02 02:15:48;;;;;;;;;;;;;;;24.49;77.44;96766.23;618957;229;65618;-64
2022/08/02 02:18:19;;;;;;;;;;;;;;;24.48;77.38;96759.27;618976;229;64732;-64
2022/08/02 02:20:47;;;;;;;;;;;;;;;24.48;77.23;96761.96;618965;229;64931;-64
2022/08/02 02:23:16;;;;;;;;;;;;;;;24.48;77.20;96759.27;618914;229;63139;-64
2022/08/02 02:25:44;;;;;;;;;;;;;;;24.48;77.06;96753.91;618930;229;66416;-64
2022/08/02 02:28:13;;;;;;;;;;;;;;;24.47;77.04;96763.86;618947;229;65034;-64
2022/08/02 02:30:42;;;;;;;;;;;;;;;24.48;76.99;96759.27;618412;228;65603;-64
2022/08/02 02:33:12;;;;;;;;;;;;;;;24.47;76.89;96755.80;618979;229;65236;-65
2022/08/02 02:35:40;;;;;;;;;;;;;;;24.47;76.96;96766.55;618936;229;64870;-65
2022/08/02 02:38:09;;;;;;;;;;;;;;;24.47;76.94;96763.86;618928;229;63278;-65
2022/08/02 02:40:38;;;;;;;;;;;;;;;24.46;76.94;96754.19;618961;229;65044;-65
2022/08/02 02:43:06;;;;;;;;;;;;;;;24.47;76.89;96763.86;618957;229;64880;-65
2022/08/02 02:45:34;;;;;;;;;;;;;;;24.46;76.90;96767.63;618923;229;64973;-65
2022/08/02 02:48:03;;;;;;;;;;;;;;;24.46;76.84;96764.93;618959;229;65029;-65
2022/08/02 02:50:32;;;;;;;;;;;;;;;24.46;76.98;96761.45;618901;229;62769;-65
2022/08/02 02:53:00;;;;;;;;;;;;;;;24.46;76.98;96767.63;618923;229;65873;-65
2022/08/02 02:55:28;;;;;;;;;;;;;;;24.45;76.99;96763.35;618942;229;65037;-65
2022/08/02 02:57:56;;;;;;;;;;;;;;;24.45;76.88;96766.04;618964;229;62966;-65
2022/08/02 03:03:10;;;;;;;;;;;;;;;24.45;76.76;96771.41;618947;229;65333;-64
2022/08/02 03:05:38;;;;;;;;;;;;;;;24.45;76.66;96774.09;618922;229;64884;-63
2022/08/02 03:08:05;;;;;;;;;;;;;;;24.45;76.70;96774.09;618949;229;62829;-63
2022/08/02 03:10:33;;;;;;;;;;;;;;;24.45;76.71;96782.16;618972;229;65216;-63
2022/08/02 03:13:01;;;;;;;;;;;;;;;24.45;76.76;96778.68;618900;227;64894;-65
2022/08/02 03:15:29;;;;;;;;;;;;;;;24.45;76.75;96775.99;618914;229;65693;-66
2022/08/02 03:17:57;;;;;;;;;;;;;;;24.43;76.85;96770.88;618930;229;65054;-63
2022/08/02 03:20:24;;;;;;;;;;;;;;;24.43;76.67;96776.25;618923;229;64897;-64
2022/08/02 03:22:52;;;;;;;;;;;;;;;24.45;76.57;96778.68;618954;229;65465;-64
2022/08/02 03:25:19;;;;;;;;;;;;;;;24.44;76.52;96779.75;618946;229;64984;-64
2022/08/02 03:27:47;;;;;;;;;;;;;;;24.44;76.54;96782.44;618935;229;63176;-65
2022/08/02 03:30:16;;;;;;;;;;;;;;;24.44;76.67;96788.60;618934;229;65527;-65
2022/08/02 03:32:45;;;;;;;;;;;;;;;24.43;76.74;96786.99;618948;229;64816;-66
2022/08/02 03:35:14;;;;;;;;;;;;;;;24.44;76.71;96790.50;618909;229;62850;-65
2022/08/02 03:37:42;;;;;;;;;;;;;;;24.44;76.69;96795.88;618983;229;65497;-65
2022/08/02 03:40:11;;;;;;;;;;;;;;;24.43;76.66;96796.95;618913;229;65511;-65
2022/08/02 03:42:39;;;;;;;;;;;;;;;24.43;76.67;96803.11;618913;229;65069;-65
2022/08/02 03:45:08;;;;;;;;;;;;;;;24.43;76.59;96802.31;618924;229;65490;-65
2022/08/02 03:47:37;;;;;;;;;;;;;;;24.43;76.50;96796.95;618892;229;63195;-65
2022/08/02 03:50:07;;;;;;;;;;;;;;;24.43;76.46;96803.11;618971;229;65025;-65
2022/08/02 03:52:35;;;;;;;;;;;;;;;24.42;76.45;96801.53;618924;229;63353;-66
2022/08/02 03:55:03;;;;;;;;;;;;;;;24.42;76.48;96798.84;618960;229;63222;-65
2022/08/02 03:57:31;;;;;;;;;;;;;;;24.42;76.37;96806.08;618940;229;65073;-66
2022/08/02 03:59:58;;;;;;;;;;;;;;;24.41;76.43;96805.29;618947;229;64866;-64
2022/08/02 04:02:26;;;;;;;;;;;;;;;24.42;76.33;96808.77;618953;229;66127;-64
2022/08/02 04:04:53;;;;;;;;;;;;;;;24.41;76.20;96801.81;618901;229;65929;-64
2022/08/02 04:07:21;;;;;;;;;;;;;;;24.41;76.23;96807.97;618948;229;65725;-64
2022/08/02 04:09:48;;;;;;;;;;;;;;;24.41;76.26;96805.29;618922;229;65226;-64
2022/08/02 04:12:16;;;;;;;;;;;;;;;24.41;76.25;96807.97;618881;227;62869;-64
2022/08/02 04:14:44;;;;;;;;;;;;;;;24.40;76.19;96809.08;618902;229;65411;-65
2022/08/02 04:17:13;;;;;;;;;;;;;;;24.40;76.28;96809.08;618981;229;62845;-65
2022/08/02 04:19:42;;;;;;;;;;;;;;;24.40;76.24;96801.02;618931;229;65885;-65
2022/08/02 04:22:11;;;;;;;;;;;;;;;24.40;76.30;96806.39;618863;228;65504;-65
2022/08/02 04:24:40;;;;;;;;;;;;;;;24.41;76.23;96804.50;618908;228;65134;-66
2022/08/02 04:27:09;;;;;;;;;;;;;;;24.41;76.28;96804.50;618900;229;64881;-65
2022/08/02 04:29:38;;;;;;;;;;;;;;;24.41;76.32;96807.19;618952;229;65565;-65
2022/08/02 04:32:06;;;;;;;;;;;;;;;24.40;76.39;96797.55;618911;229;65187;-65
2022/08/02 04:34:34;;;;;;;;;;;;;;;24.40;76.44;96803.70;618919;229;63018;-65
2022/08/02 04:37:01;;;;;;;;;;;;;;;24.40;76.49;96803.70;618930;229;65593;-64
2022/08/02 04:39:29;;;;;;;;;;;;;;;24.40;76.57;96806.39;618920;229;65317;-64
2022/08/02 04:41:56;;;;;;;;;;;;;;;24.40;76.56;96801.02;618940;229;64881;-65
2022/08/02 04:44:24;;;;;;;;;;;;;;;24.40;76.69;96811.77;618943;229;65264;-65
2022/08/02 04:46:53;;;;;;;;;;;;;;;24.40;76.77;96803.70;618977;229;64653;-64
2022/08/02 04:49:20;;;;;;;;;;;;;;;24.40;76.73;96811.77;618943;229;62854;-64
2022/08/02 04:51:48;;;;;;;;;;;;;;;24.40;76.82;96803.70;618941;229;62728;-64
2022/08/02 04:54:15;;;;;;;;;;;;;;;24.40;76.86;96802.92;618943;229;65426;-63
2022/08/02 04:56:43;;;;;;;;;;;;;;;24.39;76.87;96807.50;618937;229;65142;-64
2022/08/02 04:59:11;;;;;;;;;;;;;;;24.40;76.98;96805.60;618915;229;65126;-63
2022/08/02 05:01:41;;;;;;;;;;;;;;;24.39;76.97;96810.19;618960;229;62669;-64
2022/08/02 05:04:08;;;;;;;;;;;;;;;24.39;77.00;96810.19;618908;229;62789;-66
2022/08/02 05:06:35;;;;;;;;;;;;;;;24.39;77.12;96810.19;618943;229;62817;-65
2022/08/02 05:09:03;;;;;;;;;;;;;;;24.39;77.15;96804.81;618937;229;65277;-66
2022/08/02 05:11:30;;;;;;;;;;;;;;;24.39;77.12;96807.50;618978;229;65215;-67
2022/08/02 05:13:58;;;;;;;;;;;;;;;24.38;77.10;96809.36;618864;227;64942;-65
2022/08/02 05:16:25;;;;;;;;;;;;;;;24.38;77.14;96813.95;618928;229;65098;-64
2022/08/02 05:18:54;;;;;;;;;;;;;;;24.39;77.15;96815.55;618887;229;62658;-64
2022/08/02 05:21:21;;;;;;;;;;;;;;;24.38;77.18;96811.26;618935;229;65920;-64
2022/08/02 05:23:49;;;;;;;;;;;;;;;24.38;77.23;96822.00;618913;229;64979;-64
2022/08/02 05:26:16;;;;;;;;;;;;;;;24.38;77.31;96814.73;618850;229;64871;-64
2022/08/02 05:28:44;;;;;;;;;;;;;;;24.37;77.29;96828.48;618893;229;62942;-64
2022/08/02 05:31:11;;;;;;;;;;;;;;;24.38;77.32;96825.48;618960;229;63790;-64
2022/08/02 05:33:39;;;;;;;;;;;;;;;24.37;77.34;96823.11;619000;229;64835;-64
2022/08/02 05:36:08;;;;;;;;;;;;;;;24.37;77.34;96826.58;618903;229;65720;-64
2022/08/02 05:38:35;;;;;;;;;;;;;;;24.37;77.36;96829.27;618926;229;63169;-64
2022/08/02 05:41:03;;;;;;;;;;;;;;;24.37;77.36;96829.27;618925;229;65006;-64
2022/08/02 05:43:31;;;;;;;;;;;;;;;24.37;77.41;96840.02;618950;229;63307;-65
2022/08/02 05:45:58;;;;;;;;;;;;;;;24.38;77.52;96840.80;618946;229;63006;-71
2022/08/02 05:48:26;;;;;;;;;;;;;;;24.37;76.69;96833.85;618065;229;62654;-71
2022/08/02 05:50:57;;;;;;;;;;;;;;;24.36;76.51;96845.67;618914;229;65680;-71
2022/08/02 05:53:26;;;;;;;;;;;;;;;24.36;76.46;96843.80;618902;228;63018;-71
2022/08/02 05:55:55;;;;;;;;;;;;;;;24.34;75.96;96843.30;617823;228;71268;-73
2022/08/02 05:58:37;;;;;;;;;;;;;;;24.35;75.45;96849.45;617841;229;65345;-72
2022/08/02 06:01:05;;;;;;;;;;;;;;;24.34;75.21;96845.19;618874;228;65491;-72
2022/08/02 06:03:35;;;;;;;;;;;;;;;24.34;74.86;96856.72;618840;229;65006;-72
2022/08/02 06:06:05;;;;;;;;;;;;;;;24.33;74.58;96854.32;618720;228;62956;-69
2022/08/02 06:08:33;;;;;;;;;;;;;;;24.33;74.31;96851.64;618682;228;63145;-72
2022/08/02 06:11:02;;;;;;;;;;;;;;;24.32;74.09;96853.53;618857;229;65207;-71
2022/08/02 06:13:30;;;;;;;;;;;;;;;24.32;73.43;96864.27;622303;227;65678;-70
2022/08/02 06:15:59;;;;;;;;;;;;;;;24.31;73.49;96860.00;624083;227;65023;-70
2022/08/02 06:18:31;;;;;;;;;;;;;;;24.32;73.63;96866.17;624022;227;65169;-73
2022/08/02 06:21:01;;;;;;;;;;;;;;;24.31;73.76;96864.59;624109;227;65369;-73
2022/08/02 06:23:29;;;;;;;;;;;;;;;24.32;73.65;96866.96;624077;227;63040;-73
2022/08/02 06:25:58;;;;;;;;;;;;;;;24.32;73.65;96861.59;624064;227;62989;-69
2022/08/02 06:28:26;;;;;;;;;;;;;;;24.32;73.48;96866.96;624195;227;65188;-72
2022/08/02 06:30:54;;;;;;;;;;;;;;;24.32;73.26;96864.27;624087;227;65567;-71
2022/08/02 06:33:23;;;;;;;;;;;;;;;24.32;73.40;96864.27;623237;227;62955;-72
2022/08/02 06:36:04;;;;;;;;;;;;;;;24.33;73.44;96865.86;622955;227;63569;-72
2022/08/02 06:38:36;;;;;;;;;;;;;;;24.33;73.32;96870.44;623861;227;65420;-72
2022/08/02 06:41:05;;;;;;;;;;;;;;;24.33;73.64;96868.54;623911;227;64945;-71
2022/08/02 06:43:43;;;;;;;;;;;;;;;24.34;73.88;96866.67;624137;227;65553;-72
2022/08/02 06:46:11;;;;;;;;;;;;;;;24.33;74.02;96863.17;624022;227;66397;-71
2022/08/02 06:48:39;;;;;;;;;;;;;;;24.35;74.19;96870.94;624066;227;64895;-71
2022/08/02 06:51:08;;;;;;;;;;;;;;;24.34;74.20;96858.62;624085;227;65459;-72
2022/08/02 06:53:35;;;;;;;;;;;;;;;24.35;74.39;96865.58;617850;227;65003;-71
2022/08/02 06:56:03;;;;;;;;;;;;;;;24.34;74.53;96861.30;617057;230;62727;-71
2022/08/02 06:58:31;;;;;;;;;;;;;;;24.35;74.54;96866.36;617017;230;63334;-71
2022/08/02 07:00:59;;;;;;;;;;;;;;;24.35;74.67;96862.89;616983;230;62970;-72
2022/08/02 07:03:26;;;;;;;;;;;;;;;24.36;74.55;96865.29;617004;230;63127;-72
2022/08/02 07:05:54;;;;;;;;;;;;;;;24.36;74.76;96869.84;616961;230;63156;-70
2022/08/02 07:08:22;;;;;;;;;;;;;;;24.36;74.84;96865.29;617053;230;63162;-70
2022/08/02 07:10:49;;;;;;;;;;;;;;;24.37;75.01;96863.39;617091;230;65040;-71
2022/08/02 07:13:17;;;;;;;;;;;;;;;24.37;75.04;96869.55;614069;230;63133;-71
2022/08/02 07:15:44;;;;;;;;;;;;;;;24.37;75.11;96871.45;611937;232;63548;-70
2022/08/02 07:18:14;;;;;;;;;;;;;;;24.37;75.25;96872.24;611898;232;64987;-70
2022/08/02 07:20:42;;;;;;;;;;;;;;;24.38;75.28;96867.66;611633;231;65564;-72
2022/08/02 07:23:10;;;;;;;;;;;;;;;24.37;75.21;96872.24;608532;232;65818;-68
2022/08/02 07:25:37;;;;;;;;;;;;;;;24.38;75.44;96868.45;611881;232;65050;-70
2022/08/02 07:28:05;;;;;;;;;;;;;;;24.36;70.96;96859.09;611853;232;65484;-71
2022/08/02 07:30:33;;;;;;;;;;;;;;;24.38;73.00;96873.03;611922;232;65786;-70
2022/08/02 07:33:00;;;;;;;;;;;;;;;24.39;74.35;96869.27;611907;232;62827;-70
2022/08/02 07:35:28;;;;;;;;;;;;;;;24.39;74.41;96869.27;611921;232;63087;-71
2022/08/02 07:37:55;;;;;;;;;;;;;;;24.39;74.58;96869.27;611879;232;65417;-71
2022/08/02 07:40:23;;;;;;;;;;;;;;;24.38;74.72;96867.66;611919;232;65014;-70
2022/08/02 07:42:52;;;;;;;;;;;;;;;24.39;74.86;96866.59;611796;232;64939;-70
2022/08/02 07:45:21;;;;;;;;;;;;;;;24.39;74.90;96871.96;611828;232;61605;-71
2022/08/02 07:47:50;;;;;;;;;;;;;;;24.39;75.04;96874.64;611844;232;65178;-70
2022/08/02 07:50:18;;;;;;;;;;;;;;;24.39;75.06;96874.64;611769;232;63520;-71
2022/08/02 07:52:46;;;;;;;;;;;;;;;24.38;75.22;96879.20;611918;232;63260;-70
2022/08/02 07:55:14;;;;;;;;;;;;;;;24.38;75.13;96873.03;611915;232;63007;-70
2022/08/02 07:57:42;;;;;;;;;;;;;;;24.38;75.19;96875.72;611837;232;65656;-71
2022/08/02 08:00:10;;;;;;;;;;;;;;;24.37;75.05;96882.98;611957;232;64995;-70
2022/08/02 08:02:40;;;;;;;;;;;;;;;24.38;74.69;96870.34;611951;232;64926;-70
2022/08/02 08:05:09;;;;;;;;;;;;;;;24.38;74.42;96884.56;611879;232;65590;-69
2022/08/02 08:07:37;;;;;;;;;;;;;;;24.38;74.22;96883.78;611938;232;65259;-69
2022/08/02 08:10:05;;;;;;;;;;;;;;;24.38;74.28;96892.63;611804;232;65002;-69
2022/08/02 08:12:33;;;;;;;;;;;;;;;24.37;74.06;96891.05;611801;230;65789;-65
2022/08/02 08:15:00;;;;;;;;;;;;;;;24.38;74.18;96886.46;611985;232;62911;-64
2022/08/02 08:17:28;;;;;;;;;;;;;;;24.37;74.12;96888.36;611812;232;64658;-69
2022/08/02 08:19:56;;;;;;;;;;;;;;;24.38;74.05;96891.84;611770;232;65477;-67
2022/08/02 08:22:24;;;;;;;;;;;;;;;24.37;74.09;96891.05;611862;232;65268;-64
2022/08/02 08:24:52;;;;;;;;;;;;;;;24.38;73.86;96889.15;611817;232;65186;-63
2022/08/02 08:27:21;;;;;;;;;;;;;;;24.38;73.93;96883.78;611919;232;62957;-69
2022/08/02 08:29:49;;;;;;;;;;;;;;;24.38;74.10;96886.46;611876;232;64927;-62
2022/08/02 08:32:16;;;;;;;;;;;;;;;24.38;74.32;96884.56;611832;232;62497;-61
2022/08/02 08:34:44;;;;;;;;;;;;;;;24.40;74.41;96886.97;611897;232;63078;-61
2022/08/02 08:37:12;;;;;;;;;;;;;;;24.38;74.46;96884.56;611817;232;66457;-61
2022/08/02 08:39:39;;;;;;;;;;;;;;;24.39;74.48;96880.02;611821;232;65076;-61
2022/08/02 08:42:08;;;;;;;;;;;;;;;24.38;74.37;96883.78;611838;232;65562;-61
2022/08/02 08:44:35;;;;;;;;;;;;;;;24.38;74.35;96875.72;611873;232;63207;-61
2022/08/02 08:47:04;;;;;;;;;;;;;;;24.38;74.33;96879.20;611792;232;65256;-61
2022/08/02 08:49:32;;;;;;;;;;;;;;;24.37;74.45;96877.62;611808;232;65574;-62
2022/08/02 08:52:02;;;;;;;;;;;;;;;24.38;74.44;96881.88;611850;232;62712;-63
2022/08/02 08:54:29;;;;;;;;;;;;;;;24.38;74.39;96873.83;611884;232;64893;-62
2022/08/02 08:56:57;;;;;;;;;;;;;;;24.38;74.56;96867.66;611908;232;64948;-69
2022/08/02 08:59:25;;;;;;;;;;;;;;;24.38;74.54;96854.23;611762;232;62587;-69
2022/08/02 09:01:54;;;;;;;;;;;;;;;24.37;74.58;96866.88;611240;232;62840;-69
2022/08/02 09:04:22;;;;;;;;;;;;;;;24.38;74.47;96864.98;611747;231;63362;-69
2022/08/02 09:06:50;;;;;;;;;;;;;;;24.38;69.37;96867.66;611912;232;65158;-69
2022/08/02 09:09:17;;;;;;;;;;;;;;;24.41;68.27;96867.06;611891;232;64830;-69
2022/08/02 09:11:45;;;;;;;;;;;;;;;24.41;71.74;96867.06;611855;232;62768;-69
2022/08/02 09:14:14;;;;;;;;;;;;;;;24.41;72.86;96863.59;611819;230;61574;-69
2022/08/02 09:16:42;;;;;;;;;;;;;;;24.40;73.34;96854.73;611345;231;65046;-69
2022/08/02 09:19:18;;;;;;;;;;;;;;;24.40;73.52;96856.63;611928;232;65491;-68
2022/08/02 09:21:45;;;;;;;;;;;;;;;24.38;73.68;96846.97;611820;231;65016;-68
2022/08/02 09:24:18;;;;;;;;;;;;;;;24.40;73.56;96853.95;611881;232;64915;-66
2022/08/02 09:26:46;;;;;;;;;;;;;;;24.38;72.80;96852.34;611610;231;65500;-68
2022/08/02 09:29:14;;;;;;;;;;;;;;;24.39;73.78;96853.16;611833;232;65213;-67
2022/08/02 09:31:41;;;;;;;;;;;;;;;24.40;74.47;96859.32;611870;232;65051;-67
2022/08/02 09:34:10;;;;;;;;;;;;;;;24.40;74.71;96844.00;611868;232;65540;-66
2022/08/02 09:36:40;;;;;;;;;;;;;;;24.40;75.17;96849.37;611842;232;64990;-67
2022/08/02 09:39:12;;;;;;;;;;;;;;;24.40;75.55;96844.00;611832;231;62712;-68
2022/08/02 09:41:40;;;;;;;;;;;;;;;24.40;75.87;96838.63;611901;232;65318;-69
2022/08/02 09:44:09;;;;;;;;;;;;;;;24.41;76.13;96842.89;611850;232;64926;-68
2022/08/02 09:46:38;;;;;;;;;;;;;;;24.41;76.30;96842.89;611916;232;65018;-73
2022/08/02 09:49:07;;;;;;;;;;;;;;;24.41;76.03;96844.78;611837;232;63169;-68
2022/08/02 09:51:36;;;;;;;;;;;;;;;24.40;76.11;96846.68;611762;232;65780;-65
2022/08/02 09:54:05;;;;;;;;;;;;;;;24.39;76.00;96842.41;611855;232;65007;-70
2022/08/02 09:56:40;;;;;;;;;;;;;;;24.41;76.35;96844.78;611832;232;65482;-69
2022/08/02 09:59:09;;;;;;;;;;;;;;;24.40;76.02;96854.73;608930;231;65172;-70
2022/08/02 10:01:37;;;;;;;;;;;;;;;24.40;75.88;96848.58;611889;232;63003;-72
2022/08/02 10:04:06;;;;;;;;;;;;;;;24.39;75.52;96845.10;611777;232;65537;-70
2022/08/02 10:06:33;;;;;;;;;;;;;;;24.39;75.40;96837.05;611864;232;63135;-65
2022/08/02 10:09:01;;;;;;;;;;;;;;;24.39;75.18;96839.73;611744;232;64922;-65
2022/08/02 10:11:30;;;;;;;;;;;;;;;24.39;75.02;96837.05;611749;232;65279;-63
2022/08/02 10:13:58;;;;;;;;;;;;;;;24.38;74.85;96832.75;611787;230;65063;-66
2022/08/02 10:16:25;;;;;;;;;;;;;;;24.39;74.95;96837.05;611817;232;62739;-64
2022/08/02 10:18:54;;;;;;;;;;;;;;;24.39;74.98;96845.10;611820;232;65917;-63
2022/08/02 10:21:29;;;;;;;;;;;;;;;24.38;74.91;96841.59;611817;232;65054;-64
2022/08/02 10:23:56;;;;;;;;;;;;;;;24.39;75.07;96834.36;611786;231;65011;-62
2022/08/02 10:26:24;;;;;;;;;;;;;;;24.39;75.03;96837.05;611810;231;71217;-63
2022/08/02 10:28:53;;;;;;;;;;;;;;;24.39;75.00;96834.36;611987;232;65195;-63
2022/08/02 10:31:22;;;;;;;;;;;;;;;24.39;75.18;96834.36;611889;232;63646;-63
2022/08/02 10:33:51;;;;;;;;;;;;;;;24.37;74.98;96823.90;611843;232;63273;-63
2022/08/02 10:36:22;;;;;;;;;;;;;;;24.38;74.98;96827.38;611873;232;65133;-62
2022/08/02 10:38:49;;;;;;;;;;;;;;;24.39;75.00;96818.24;611943;232;62753;-62
2022/08/02 10:41:23;;;;;;;;;;;;;;;24.38;74.99;96825.48;611840;232;63131;-63
2022/08/02 10:43:48;;;;;;;;;;;;;;;24.38;74.99;96822.00;611186;232;62897;-57
2022/08/02 10:46:26;;;;;;;;;;;;;;;24.38;75.03;96827.38;611877;232;62701;-62
2022/08/02 10:49:13;;;;;;;;;;;;;;;24.40;72.56;96821.72;611766;232;65632;-62
2022/08/02 10:51:56;;;;;;;;;;;;;;;24.43;73.90;96819.23;611894;232;65239;-65
2022/08/02 10:54:25;;;;;;;;;;;;;;;24.46;74.95;96820.55;611843;232;63149;-63
2022/08/02 10:56:54;;;;;;;;;;;;;;;24.46;75.06;96824.03;611844;232;63147;-62
2022/08/02 10:59:24;;;;;;;;;;;;;;;24.48;75.26;96823.74;611617;232;65153;-61
2022/08/02 11:01:55;;;;;;;;;;;;;;;24.48;75.36;96816.48;609683;231;62897;-61
2022/08/02 11:04:20;;;;;;;;;;;;;;;24.49;75.43;96815.37;611831;231;63290;-62
2022/08/02 11:07:06;;;;;;;;;;;;;;;24.50;75.43;96825.04;611881;232;63393;-62
2022/08/02 11:09:34;;;;;;;;;;;;;;;24.50;75.38;96816.16;611838;232;63822;-61
2022/08/02 11:12:06;;;;;;;;;;;;;;;24.50;75.30;96819.66;611941;230;63152;-69
2022/08/02 11:14:35;;;;;;;;;;;;;;;24.51;75.21;96812.40;617063;230;65191;-69
2022/08/02 11:17:05;;;;;;;;;;;;;;;24.50;75.02;96814.30;616571;230;65086;-69
2022/08/02 11:19:33;;;;;;;;;;;;;;;24.51;74.97;96818.56;616980;230;63202;-70
2022/08/02 11:22:02;;;;;;;;;;;;;;;24.51;74.92;96812.40;616926;230;65052;-71
2022/08/02 11:24:32;;;;;;;;;;;;;;;24.51;74.71;96810.50;617009;230;62924;-69
2022/08/02 11:27:01;;;;;;;;;;;;;;;24.51;74.65;96805.13;617062;230;62693;-69
2022/08/02 11:29:32;;;;;;;;;;;;;;;24.52;74.56;96800.55;616884;230;65191;-70
2022/08/02 11:32:00;;;;;;;;;;;;;;;24.52;74.53;96798.66;616969;230;64882;-69
2022/08/02 11:34:28;;;;;;;;;;;;;;;24.52;74.48;96806.71;616912;230;66138;-70
2022/08/02 11:36:56;;;;;;;;;;;;;;;24.55;72.70;96811.52;616953;230;65376;-70
2022/08/02 11:39:23;;;;;;;;;;;;;;;24.53;74.91;96805.63;617056;230;62931;-70
2022/08/02 11:41:51;;;;;;;;;;;;;;;24.51;75.07;96799.76;616969;230;63130;-71
2022/08/02 11:44:19;;;;;;;;;;;;;;;24.49;75.08;96801.15;616887;230;65448;-69
2022/08/02 11:46:53;;;;;;;;;;;;;;;24.47;74.95;96803.33;616981;230;65863;-69
2022/08/02 11:49:21;;;;;;;;;;;;;;;24.47;74.85;96803.33;616951;230;65440;-69
2022/08/02 11:51:58;;;;;;;;;;;;;;;24.46;74.73;96801.75;617029;230;62938;-69
2022/08/02 11:54:30;;;;;;;;;;;;;;;24.45;74.65;96803.64;616813;229;43913;-69
2022/08/02 11:57:10;;;;;;;;;;;;;;;24.45;74.54;96803.64;616980;230;65297;-70
2022/08/02 11:59:39;;;;;;;;;;;;;;;24.44;74.49;96799.34;616976;230;63173;-69
2022/08/02 12:02:07;;;;;;;;;;;;;;;24.45;74.51;96794.80;616982;230;65351;-70
2022/08/02 12:04:38;;;;;;;;;;;;;;;24.43;74.57;96792.36;617020;230;65591;-70
2022/08/02 12:07:07;;;;;;;;;;;;;;;24.43;74.38;96792.36;616965;230;65562;-69
2022/08/02 12:09:35;;;;;;;;;;;;;;;24.43;74.73;96792.36;616994;230;65078;-69
2022/08/02 12:12:05;;;;;;;;;;;;;;;24.44;74.95;96785.13;616687;230;47457;-70
2022/08/02 12:14:32;;;;;;;;;;;;;;;24.43;75.07;96778.94;616955;230;64957;-69
2022/08/02 12:19:45;;;;;;;;;;;;;;;24.44;75.33;96790.50;616906;230;65715;-66
2022/08/02 12:22:14;;;;;;;;;;;;;;;24.43;75.39;96783.52;616963;230;62938;-69
2022/08/02 12:24:43;;;;;;;;;;;;;;;24.46;70.15;96791.80;617000;230;64873;-69
2022/08/02 12:27:13;;;;;;;;;;;;;;;24.51;73.97;96786.33;616940;230;65414;-69
2022/08/02 12:29:41;;;;;;;;;;;;;;;24.51;74.34;96789.02;616252;230;65150;-65
2022/08/02 12:32:10;;;;;;;;;;;;;;;24.52;74.80;96787.11;616939;230;65053;-68
2022/08/02 12:34:40;;;;;;;;;;;;;;;24.53;75.16;96789.52;616460;230;46657;-67
2022/08/02 12:37:09;;;;;;;;;;;;;;;24.53;75.25;96789.52;616669;230;65789;-67
2022/08/02 12:39:41;;;;;;;;;;;;;;;24.55;75.37;96795.39;616772;230;65020;-67
2022/08/02 12:42:09;;;;;;;;;;;;;;;24.56;75.54;96780.06;616828;230;65172;-67
2022/08/02 12:44:38;;;;;;;;;;;;;;;24.56;75.68;96788.12;617017;230;65140;-67
2022/08/02 12:47:09;;;;;;;;;;;;;;;24.56;75.74;96794.28;616994;230;62644;-67
2022/08/02 12:49:36;;;;;;;;;;;;;;;24.56;75.83;96783.54;616941;230;65560;-70
2022/08/02 12:52:21;;;;;;;;;;;;;;;24.57;75.91;96787.80;616725;230;41850;-67
2022/08/02 12:54:50;;;;;;;;;;;;;;;24.57;75.93;96789.70;616983;230;64828;-65
2022/08/02 12:57:18;;;;;;;;;;;;;;;24.57;75.91;96787.02;616929;230;65250;-64
2022/08/02 12:59:50;;;;;;;;;;;;;;;24.57;75.93;96778.95;616902;230;65271;-64
2022/08/02 13:02:18;;;;;;;;;;;;;;;24.57;75.83;96779.75;616947;230;65045;-63